WJA261 LOWW-LSGG
Flight info
| Callsign | WJA261 |
|---|---|
| Flight time | 1h 27m |
| Altitude | 34000 |
| Route | ODSU2C/29 SOVIL DCT SITNI DCT BAGSI DCT MATIG DCT TRAUN L856 AKABI/N0434F350 L856 TRA DCT LUTIX DCT BENOT |
| Aircraft | B738/M-SDE2E3FGHIRWXY/LB1 |
Departure
| Time | 2026-04-24 19:29 |
|---|---|
| Airport | Vienna International Airport (LOWW) |
Arrival
| Time | 2026-04-24 20:56 |
|---|---|
| Airport | Geneva International Airport (LSGG) |
| Time | Latitude | Longitude | Altitude | Speed | Heading |
|---|---|---|---|---|---|
| 2026-04-24 18:54 | 48.11457 | 16.57080 | 607 ft | 0 kts | 206° |
| 2026-04-24 19:22 | 48.11425 | 16.57056 | 608 ft | 7 kts | 205° |
| 2026-04-24 19:22 | 48.11364 | 16.57055 | 608 ft | 11 kts | 170° |
| 2026-04-24 19:22 | 48.11288 | 16.57062 | 608 ft | 10 kts | 156° |
| 2026-04-24 19:23 | 48.11247 | 16.57149 | 608 ft | 10 kts | 116° |
| 2026-04-24 19:23 | 48.11217 | 16.57243 | 608 ft | 9 kts | 114° |
| 2026-04-24 19:23 | 48.11190 | 16.57330 | 608 ft | 9 kts | 116° |
| 2026-04-24 19:23 | 48.11163 | 16.57412 | 608 ft | 8 kts | 116° |
| 2026-04-24 19:24 | 48.11137 | 16.57493 | 608 ft | 9 kts | 115° |
| 2026-04-24 19:24 | 48.11109 | 16.57581 | 608 ft | 9 kts | 116° |
| 2026-04-24 19:24 | 48.11073 | 16.57652 | 608 ft | 8 kts | 153° |
| 2026-04-24 19:24 | 48.11028 | 16.57633 | 608 ft | 6 kts | 206° |
| 2026-04-24 19:25 | 48.10986 | 16.57603 | 608 ft | 8 kts | 208° |
| 2026-04-24 19:25 | 48.10930 | 16.57558 | 608 ft | 8 kts | 212° |
| 2026-04-24 19:25 | 48.10930 | 16.57487 | 608 ft | 6 kts | 299° |
| 2026-04-24 19:25 | 48.10930 | 16.57484 | 608 ft | 0 kts | 300° |
| 2026-04-24 19:28 | 48.10968 | 16.57375 | 608 ft | 38 kts | 296° |
| 2026-04-24 19:28 | 48.11178 | 16.56727 | 608 ft | 98 kts | 296° |
| 2026-04-24 19:28 | 48.11557 | 16.55560 | 608 ft | 149 kts | 296° |
| 2026-04-24 19:28 | 48.12063 | 16.53993 | 742 ft | 176 kts | 296° |
| 2026-04-24 19:29 | 48.12521 | 16.50724 | 2189 ft | 170 kts | 251° |
| 2026-04-24 19:29 | 48.11756 | 16.49281 | 2622 ft | 188 kts | 222° |
| 2026-04-24 19:29 | 48.10518 | 16.48409 | 2999 ft | 207 kts | 202° |
| 2026-04-24 19:30 | 48.09092 | 16.47810 | 3376 ft | 221 kts | 201° |
| 2026-04-24 19:30 | 48.07592 | 16.47057 | 3746 ft | 232 kts | 213° |
| 2026-04-24 19:30 | 48.06305 | 16.45696 | 4388 ft | 225 kts | 229° |
| 2026-04-24 19:30 | 48.05167 | 16.44063 | 4861 ft | 235 kts | 231° |
| 2026-04-24 19:31 | 48.03944 | 16.42324 | 5254 ft | 249 kts | 229° |
| 2026-04-24 19:31 | 48.02630 | 16.40557 | 5641 ft | 263 kts | 227° |
| 2026-04-24 19:31 | 48.01239 | 16.38744 | 6189 ft | 271 kts | 227° |
| 2026-04-24 19:31 | 47.99809 | 16.36895 | 6795 ft | 276 kts | 227° |
| 2026-04-24 19:32 | 47.98346 | 16.34985 | 7419 ft | 280 kts | 228° |
| 2026-04-24 19:32 | 47.97090 | 16.32848 | 8025 ft | 277 kts | 244° |
| 2026-04-24 19:32 | 47.96435 | 16.30205 | 8716 ft | 269 kts | 266° |
| 2026-04-24 19:32 | 47.96429 | 16.27473 | 9400 ft | 266 kts | 280° |
| 2026-04-24 19:33 | 47.96668 | 16.24768 | 10089 ft | 268 kts | 282° |
| 2026-04-24 19:33 | 47.96946 | 16.21981 | 10554 ft | 281 kts | 282° |
| 2026-04-24 19:33 | 47.97240 | 16.19033 | 10912 ft | 296 kts | 282° |
| 2026-04-24 19:33 | 47.97545 | 16.15892 | 11261 ft | 313 kts | 281° |
| 2026-04-24 19:34 | 47.97853 | 16.12632 | 11790 ft | 322 kts | 281° |
| 2026-04-24 19:34 | 47.98162 | 16.09305 | 12473 ft | 328 kts | 281° |
| 2026-04-24 19:34 | 47.98476 | 16.05901 | 13124 ft | 335 kts | 281° |
| 2026-04-24 19:34 | 47.98794 | 16.02451 | 13753 ft | 341 kts | 281° |
| 2026-04-24 19:35 | 47.99118 | 15.98931 | 14473 ft | 345 kts | 281° |
| 2026-04-24 19:35 | 47.99443 | 15.95390 | 15217 ft | 348 kts | 281° |
| 2026-04-24 19:35 | 47.99769 | 15.91833 | 15958 ft | 352 kts | 281° |
| 2026-04-24 19:35 | 48.00102 | 15.88205 | 16642 ft | 355 kts | 281° |
| 2026-04-24 19:36 | 48.00434 | 15.84555 | 17355 ft | 359 kts | 281° |
| 2026-04-24 19:36 | 48.00767 | 15.80889 | 17983 ft | 363 kts | 281° |
| 2026-04-24 19:36 | 48.01104 | 15.77172 | 18621 ft | 367 kts | 281° |
| 2026-04-24 19:36 | 48.01448 | 15.73349 | 19252 ft | 371 kts | 281° |
| 2026-04-24 19:37 | 48.01788 | 15.69563 | 19897 ft | 374 kts | 281° |
| 2026-04-24 19:37 | 48.02050 | 15.65667 | 20446 ft | 380 kts | 275° |
| 2026-04-24 19:37 | 48.02058 | 15.61761 | 21055 ft | 384 kts | 271° |
| 2026-04-24 19:37 | 48.01929 | 15.57773 | 21635 ft | 388 kts | 270° |
| 2026-04-24 19:38 | 48.01752 | 15.53741 | 22202 ft | 391 kts | 269° |
| 2026-04-24 19:38 | 48.01571 | 15.49694 | 22727 ft | 395 kts | 269° |
| 2026-04-24 19:38 | 48.01400 | 15.45596 | 23227 ft | 399 kts | 270° |
| 2026-04-24 19:38 | 48.01242 | 15.41452 | 23785 ft | 401 kts | 270° |
| 2026-04-24 19:39 | 48.01094 | 15.37305 | 24306 ft | 404 kts | 270° |
| 2026-04-24 19:39 | 48.00954 | 15.33129 | 24798 ft | 408 kts | 270° |
| 2026-04-24 19:39 | 48.00818 | 15.28933 | 25292 ft | 411 kts | 270° |
| 2026-04-24 19:39 | 48.00680 | 15.24661 | 25754 ft | 414 kts | 270° |
| 2026-04-24 19:40 | 48.00541 | 15.20349 | 26223 ft | 417 kts | 270° |
| 2026-04-24 19:40 | 48.00400 | 15.16020 | 26724 ft | 419 kts | 270° |
| 2026-04-24 19:40 | 48.00258 | 15.11685 | 27243 ft | 421 kts | 270° |
| 2026-04-24 19:40 | 48.00112 | 15.07302 | 27671 ft | 424 kts | 270° |
| 2026-04-24 19:41 | 47.99966 | 15.02933 | 28114 ft | 426 kts | 270° |
| 2026-04-24 19:41 | 47.99817 | 14.98516 | 28535 ft | 429 kts | 270° |
| 2026-04-24 19:41 | 47.99664 | 14.94077 | 29014 ft | 431 kts | 270° |
| 2026-04-24 19:41 | 47.99507 | 14.89586 | 29611 ft | 429 kts | 270° |
| 2026-04-24 19:42 | 47.99350 | 14.85158 | 30319 ft | 424 kts | 270° |
| 2026-04-24 19:42 | 47.99194 | 14.80798 | 30782 ft | 424 kts | 270° |
| 2026-04-24 19:42 | 47.99035 | 14.76360 | 31240 ft | 425 kts | 270° |
| 2026-04-24 19:42 | 47.98875 | 14.71950 | 31782 ft | 422 kts | 270° |
| 2026-04-24 19:43 | 47.98717 | 14.67627 | 32290 ft | 420 kts | 270° |
| 2026-04-24 19:43 | 47.98556 | 14.63247 | 32731 ft | 420 kts | 270° |
| 2026-04-24 19:43 | 47.98395 | 14.58943 | 33183 ft | 419 kts | 270° |
| 2026-04-24 19:43 | 47.98231 | 14.54628 | 33599 ft | 418 kts | 270° |
| 2026-04-24 19:44 | 47.98068 | 14.50344 | 34052 ft | 416 kts | 270° |
| 2026-04-24 19:44 | 47.97733 | 14.41681 | 34116 ft | 418 kts | 270° |
| 2026-04-24 19:45 | 47.97393 | 14.33071 | 34118 ft | 416 kts | 269° |
| 2026-04-24 19:45 | 47.97047 | 14.24468 | 34125 ft | 418 kts | 269° |
| 2026-04-24 19:46 | 47.96696 | 14.15862 | 34122 ft | 418 kts | 269° |
| 2026-04-24 19:46 | 47.96336 | 14.07246 | 34135 ft | 417 kts | 269° |
| 2026-04-24 19:47 | 47.95971 | 13.98657 | 34136 ft | 418 kts | 269° |
| 2026-04-24 19:47 | 47.95599 | 13.90027 | 34139 ft | 417 kts | 269° |
| 2026-04-24 19:48 | 47.95222 | 13.81454 | 34141 ft | 417 kts | 269° |
| 2026-04-24 19:48 | 47.94643 | 13.68588 | 34142 ft | 415 kts | 269° |
| 2026-04-24 19:49 | 47.93852 | 13.51455 | 34144 ft | 415 kts | 269° |
| 2026-04-24 19:50 | 47.93035 | 13.34355 | 34149 ft | 416 kts | 268° |
| 2026-04-24 19:51 | 47.92404 | 13.21466 | 34150 ft | 416 kts | 268° |
| 2026-04-24 19:52 | 47.91758 | 13.08594 | 34146 ft | 415 kts | 268° |
| 2026-04-24 19:52 | 47.91322 | 13.00066 | 34149 ft | 416 kts | 268° |
| 2026-04-24 19:53 | 47.90877 | 12.91478 | 34154 ft | 416 kts | 268° |
| 2026-04-24 19:54 | 47.90200 | 12.78667 | 34154 ft | 415 kts | 268° |
| 2026-04-24 19:54 | 47.89743 | 12.70162 | 34157 ft | 415 kts | 267° |
| 2026-04-24 19:55 | 47.89357 | 12.63065 | 34153 ft | 414 kts | 267° |
| 2026-04-24 19:55 | 47.88808 | 12.53104 | 34168 ft | 415 kts | 267° |
| 2026-04-24 19:56 | 47.88329 | 12.44554 | 34166 ft | 415 kts | 267° |
| 2026-04-24 19:56 | 47.87846 | 12.36051 | 34170 ft | 414 kts | 267° |
| 2026-04-24 19:57 | 47.87355 | 12.27502 | 34167 ft | 415 kts | 266° |
| 2026-04-24 19:57 | 47.86860 | 12.18994 | 34171 ft | 415 kts | 266° |
| 2026-04-24 19:58 | 47.86357 | 12.10485 | 34163 ft | 413 kts | 266° |
| 2026-04-24 19:58 | 47.85850 | 12.01994 | 34160 ft | 414 kts | 266° |
| 2026-04-24 19:59 | 47.85334 | 11.93473 | 34164 ft | 414 kts | 266° |
| 2026-04-24 19:59 | 47.84814 | 11.84968 | 34160 ft | 415 kts | 266° |
| 2026-04-24 20:00 | 47.84285 | 11.76441 | 34172 ft | 416 kts | 266° |
| 2026-04-24 20:00 | 47.83750 | 11.67909 | 34156 ft | 415 kts | 266° |
| 2026-04-24 20:01 | 47.83210 | 11.59410 | 34167 ft | 415 kts | 266° |
| 2026-04-24 20:01 | 47.82663 | 11.50909 | 34158 ft | 413 kts | 266° |
| 2026-04-24 20:02 | 47.82205 | 11.43856 | 34166 ft | 414 kts | 266° |
| 2026-04-24 20:02 | 47.81556 | 11.33963 | 34177 ft | 414 kts | 265° |
| 2026-04-24 20:03 | 47.80989 | 11.25445 | 34167 ft | 412 kts | 265° |
| 2026-04-24 20:03 | 47.80423 | 11.17024 | 34176 ft | 413 kts | 265° |
| 2026-04-24 20:04 | 47.79844 | 11.08521 | 34181 ft | 414 kts | 265° |
| 2026-04-24 20:04 | 47.79261 | 11.00036 | 34180 ft | 413 kts | 264° |
| 2026-04-24 20:05 | 47.78673 | 10.91582 | 34175 ft | 414 kts | 265° |
| 2026-04-24 20:05 | 47.78076 | 10.83088 | 34175 ft | 414 kts | 264° |
| 2026-04-24 20:06 | 47.77477 | 10.74654 | 34177 ft | 413 kts | 264° |
| 2026-04-24 20:06 | 47.76871 | 10.66210 | 34182 ft | 413 kts | 264° |
| 2026-04-24 20:07 | 47.76357 | 10.59113 | 34181 ft | 412 kts | 264° |
| 2026-04-24 20:07 | 47.75639 | 10.49306 | 34176 ft | 412 kts | 264° |
| 2026-04-24 20:08 | 47.75013 | 10.40861 | 34173 ft | 411 kts | 264° |
| 2026-04-24 20:08 | 47.74414 | 10.32396 | 34177 ft | 413 kts | 265° |
| 2026-04-24 20:09 | 47.74164 | 10.23948 | 34171 ft | 412 kts | 268° |
| 2026-04-24 20:09 | 47.74038 | 10.15434 | 34171 ft | 412 kts | 268° |
| 2026-04-24 20:10 | 47.73893 | 10.06963 | 34172 ft | 412 kts | 268° |
| 2026-04-24 20:10 | 47.73716 | 9.98503 | 34157 ft | 411 kts | 268° |
| 2026-04-24 20:11 | 47.73517 | 9.90067 | 34158 ft | 411 kts | 268° |
| 2026-04-24 20:11 | 47.73304 | 9.81603 | 34155 ft | 410 kts | 268° |
| 2026-04-24 20:12 | 47.73085 | 9.73212 | 34154 ft | 410 kts | 268° |
| 2026-04-24 20:12 | 47.72857 | 9.64784 | 34149 ft | 411 kts | 267° |
| 2026-04-24 20:13 | 47.72619 | 9.56295 | 34149 ft | 411 kts | 267° |
| 2026-04-24 20:13 | 47.72374 | 9.47823 | 34152 ft | 411 kts | 267° |
| 2026-04-24 20:14 | 47.72125 | 9.39376 | 34152 ft | 411 kts | 267° |
| 2026-04-24 20:14 | 47.71893 | 9.30931 | 34157 ft | 412 kts | 267° |
| 2026-04-24 20:15 | 47.71663 | 9.22490 | 34156 ft | 410 kts | 266° |
| 2026-04-24 20:15 | 47.71412 | 9.14039 | 34161 ft | 411 kts | 266° |
| 2026-04-24 20:16 | 47.71141 | 9.05556 | 34162 ft | 411 kts | 266° |
| 2026-04-24 20:16 | 47.70861 | 8.97144 | 34164 ft | 410 kts | 266° |
| 2026-04-24 20:17 | 47.70574 | 8.88698 | 34165 ft | 410 kts | 266° |
| 2026-04-24 20:17 | 47.70135 | 8.76064 | 34163 ft | 411 kts | 266° |
| 2026-04-24 20:18 | 47.69835 | 8.67625 | 34165 ft | 410 kts | 266° |
| 2026-04-24 20:18 | 47.69529 | 8.59211 | 34168 ft | 410 kts | 266° |
| 2026-04-24 20:19 | 47.69200 | 8.50795 | 34156 ft | 409 kts | 264° |
| 2026-04-24 20:19 | 47.67986 | 8.42626 | 34156 ft | 408 kts | 246° |
| 2026-04-24 20:20 | 47.65100 | 8.35421 | 34158 ft | 407 kts | 235° |
| 2026-04-24 20:20 | 47.61792 | 8.28632 | 34159 ft | 408 kts | 233° |
| 2026-04-24 20:21 | 47.58445 | 8.21895 | 34157 ft | 407 kts | 233° |
| 2026-04-24 20:21 | 47.55116 | 8.15148 | 34154 ft | 406 kts | 233° |
| 2026-04-24 20:22 | 47.51807 | 8.08406 | 34156 ft | 406 kts | 233° |
| 2026-04-24 20:22 | 47.48509 | 8.01678 | 34156 ft | 406 kts | 234° |
| 2026-04-24 20:23 | 47.45227 | 7.94988 | 34156 ft | 405 kts | 234° |
| 2026-04-24 20:23 | 47.41913 | 7.88248 | 34019 ft | 404 kts | 233° |
| 2026-04-24 20:24 | 47.40284 | 7.84938 | 33659 ft | 398 kts | 233° |
| 2026-04-24 20:24 | 47.38651 | 7.81625 | 33155 ft | 396 kts | 233° |
| 2026-04-24 20:24 | 47.37038 | 7.78354 | 32542 ft | 396 kts | 233° |
| 2026-04-24 20:24 | 47.35435 | 7.75110 | 31899 ft | 398 kts | 233° |
| 2026-04-24 20:25 | 47.33797 | 7.71799 | 31205 ft | 399 kts | 233° |
| 2026-04-24 20:25 | 47.32163 | 7.68503 | 30501 ft | 401 kts | 233° |
| 2026-04-24 20:25 | 47.30531 | 7.65214 | 29779 ft | 403 kts | 232° |
| 2026-04-24 20:25 | 47.28863 | 7.61858 | 29024 ft | 406 kts | 232° |
| 2026-04-24 20:26 | 47.27205 | 7.58523 | 28258 ft | 408 kts | 232° |
| 2026-04-24 20:26 | 47.25532 | 7.55163 | 27473 ft | 411 kts | 232° |
| 2026-04-24 20:26 | 47.23857 | 7.51804 | 26667 ft | 414 kts | 232° |
| 2026-04-24 20:26 | 47.22142 | 7.48371 | 25806 ft | 418 kts | 232° |
| 2026-04-24 20:27 | 47.20435 | 7.44956 | 25007 ft | 419 kts | 233° |
| 2026-04-24 20:27 | 47.18720 | 7.41527 | 24556 ft | 412 kts | 233° |
| 2026-04-24 20:27 | 47.17028 | 7.38146 | 24039 ft | 407 kts | 232° |
| 2026-04-24 20:27 | 47.15360 | 7.34860 | 23510 ft | 403 kts | 231° |
| 2026-04-24 20:28 | 47.13653 | 7.31642 | 22979 ft | 399 kts | 230° |
| 2026-04-24 20:28 | 47.11936 | 7.28486 | 22450 ft | 399 kts | 229° |
| 2026-04-24 20:28 | 47.10172 | 7.25278 | 21911 ft | 408 kts | 229° |
| 2026-04-24 20:28 | 47.08406 | 7.22071 | 21351 ft | 408 kts | 229° |
| 2026-04-24 20:29 | 47.07214 | 7.19903 | 20979 ft | 405 kts | 229° |
| 2026-04-24 20:29 | 47.04907 | 7.15696 | 20246 ft | 399 kts | 229° |
| 2026-04-24 20:29 | 47.03165 | 7.12515 | 19686 ft | 395 kts | 230° |
| 2026-04-24 20:29 | 47.01473 | 7.09425 | 19145 ft | 391 kts | 230° |
| 2026-04-24 20:30 | 46.99786 | 7.06342 | 18607 ft | 387 kts | 230° |
| 2026-04-24 20:30 | 46.98117 | 7.03294 | 18058 ft | 384 kts | 230° |
| 2026-04-24 20:30 | 46.96437 | 7.00228 | 17520 ft | 381 kts | 230° |
| 2026-04-24 20:30 | 46.94798 | 6.97240 | 16981 ft | 378 kts | 230° |
| 2026-04-24 20:31 | 46.93146 | 6.94317 | 16450 ft | 374 kts | 227° |
| 2026-04-24 20:31 | 46.91318 | 6.91639 | 15905 ft | 370 kts | 219° |
| 2026-04-24 20:31 | 46.89225 | 6.89549 | 15356 ft | 366 kts | 207° |
| 2026-04-24 20:31 | 46.86960 | 6.87927 | 14818 ft | 362 kts | 203° |
| 2026-04-24 20:32 | 46.84647 | 6.86507 | 14276 ft | 359 kts | 201° |
| 2026-04-24 20:32 | 46.82341 | 6.85177 | 13753 ft | 357 kts | 200° |
| 2026-04-24 20:32 | 46.80029 | 6.83855 | 13212 ft | 354 kts | 200° |
| 2026-04-24 20:32 | 46.77764 | 6.82545 | 12798 ft | 347 kts | 201° |
| 2026-04-24 20:33 | 46.75587 | 6.81265 | 12640 ft | 334 kts | 201° |
| 2026-04-24 20:33 | 46.73466 | 6.80003 | 12353 ft | 320 kts | 202° |
| 2026-04-24 20:33 | 46.71460 | 6.78803 | 12174 ft | 306 kts | 202° |
| 2026-04-24 20:33 | 46.69545 | 6.77655 | 12169 ft | 290 kts | 202° |
| 2026-04-24 20:34 | 46.67739 | 6.76573 | 12161 ft | 275 kts | 202° |
| 2026-04-24 20:34 | 46.66044 | 6.75453 | 12164 ft | 259 kts | 209° |
| 2026-04-24 20:34 | 46.64642 | 6.73914 | 12184 ft | 252 kts | 225° |
| 2026-04-24 20:34 | 46.63488 | 6.72014 | 12136 ft | 251 kts | 230° |
| 2026-04-24 20:35 | 46.62384 | 6.70060 | 11857 ft | 250 kts | 230° |
| 2026-04-24 20:35 | 46.61262 | 6.68139 | 11614 ft | 246 kts | 229° |
| 2026-04-24 20:35 | 46.60222 | 6.66251 | 11536 ft | 233 kts | 239° |
| 2026-04-24 20:35 | 46.59539 | 6.64195 | 11441 ft | 221 kts | 248° |
| 2026-04-24 20:36 | 46.58986 | 6.62175 | 11232 ft | 216 kts | 248° |
| 2026-04-24 20:36 | 46.58440 | 6.60142 | 10972 ft | 212 kts | 249° |
| 2026-04-24 20:36 | 46.57902 | 6.58161 | 10679 ft | 210 kts | 249° |
| 2026-04-24 20:36 | 46.57363 | 6.56218 | 10394 ft | 209 kts | 249° |
| 2026-04-24 20:37 | 46.56809 | 6.54256 | 10133 ft | 208 kts | 248° |
| 2026-04-24 20:37 | 46.56265 | 6.52334 | 9866 ft | 207 kts | 249° |
| 2026-04-24 20:37 | 46.55718 | 6.50421 | 9593 ft | 206 kts | 248° |
| 2026-04-24 20:37 | 46.55161 | 6.48490 | 9273 ft | 206 kts | 248° |
| 2026-04-24 20:38 | 46.54611 | 6.46591 | 9000 ft | 205 kts | 248° |
| 2026-04-24 20:38 | 46.54066 | 6.44697 | 8720 ft | 204 kts | 248° |
| 2026-04-24 20:38 | 46.53496 | 6.42812 | 8410 ft | 205 kts | 240° |
| 2026-04-24 20:38 | 46.52480 | 6.41376 | 8059 ft | 206 kts | 205° |
| 2026-04-24 20:39 | 46.51104 | 6.41070 | 7768 ft | 204 kts | 168° |
| 2026-04-24 20:39 | 46.49839 | 6.41918 | 7512 ft | 201 kts | 145° |
| 2026-04-24 20:39 | 46.48712 | 6.43121 | 7339 ft | 200 kts | 148° |
| 2026-04-24 20:39 | 46.47406 | 6.43765 | 7185 ft | 202 kts | 182° |
| 2026-04-24 20:40 | 46.46091 | 6.43215 | 7042 ft | 200 kts | 214° |
| 2026-04-24 20:40 | 46.45010 | 6.41946 | 6982 ft | 199 kts | 223° |
| 2026-04-24 20:40 | 46.43994 | 6.40569 | 6830 ft | 203 kts | 224° |
| 2026-04-24 20:40 | 46.42977 | 6.39120 | 6458 ft | 209 kts | 225° |
| 2026-04-24 20:41 | 46.41954 | 6.37621 | 6165 ft | 209 kts | 226° |
| 2026-04-24 20:41 | 46.40939 | 6.36116 | 5865 ft | 209 kts | 226° |
| 2026-04-24 20:41 | 46.39928 | 6.34618 | 5572 ft | 209 kts | 225° |
| 2026-04-24 20:41 | 46.38902 | 6.33089 | 5279 ft | 208 kts | 226° |
| 2026-04-24 20:42 | 46.37926 | 6.31589 | 5031 ft | 204 kts | 227° |
| 2026-04-24 20:42 | 46.36952 | 6.30124 | 4765 ft | 202 kts | 225° |
| 2026-04-24 20:42 | 46.35951 | 6.28690 | 4457 ft | 202 kts | 224° |
| 2026-04-24 20:42 | 46.34969 | 6.27283 | 4163 ft | 202 kts | 225° |
| 2026-04-24 20:43 | 46.33978 | 6.25822 | 3837 ft | 202 kts | 225° |
| 2026-04-24 20:43 | 46.33013 | 6.24384 | 3618 ft | 190 kts | 225° |
| 2026-04-24 20:43 | 46.32134 | 6.23036 | 3304 ft | 183 kts | 226° |
| 2026-04-24 20:43 | 46.31257 | 6.21745 | 3051 ft | 180 kts | 223° |
| 2026-04-24 20:44 | 46.30358 | 6.20490 | 2828 ft | 176 kts | 225° |
| 2026-04-24 20:44 | 46.29554 | 6.19263 | 2723 ft | 166 kts | 226° |
| 2026-04-24 20:44 | 46.28736 | 6.18070 | 2529 ft | 167 kts | 224° |
| 2026-04-24 20:44 | 46.27911 | 6.16892 | 2308 ft | 168 kts | 224° |
| 2026-04-24 20:45 | 46.27085 | 6.15708 | 2095 ft | 167 kts | 224° |
| 2026-04-24 20:45 | 46.26272 | 6.14512 | 1868 ft | 168 kts | 225° |
| 2026-04-24 20:45 | 46.25454 | 6.13306 | 1619 ft | 172 kts | 225° |
| 2026-04-24 20:45 | 46.24609 | 6.12070 | 2047 ft | 175 kts | 225° |
| 2026-04-24 20:46 | 46.23746 | 6.10828 | 2642 ft | 176 kts | 225° |
| 2026-04-24 20:46 | 46.22865 | 6.09531 | 3158 ft | 187 kts | 226° |
| 2026-04-24 20:46 | 46.21980 | 6.08208 | 3930 ft | 183 kts | 225° |
| 2026-04-24 20:46 | 46.21112 | 6.06927 | 4622 ft | 182 kts | 225° |
| 2026-04-24 20:47 | 46.20223 | 6.05637 | 5206 ft | 187 kts | 223° |
| 2026-04-24 20:47 | 46.19054 | 6.04746 | 5622 ft | 202 kts | 189° |
| 2026-04-24 20:47 | 46.17610 | 6.05007 | 6055 ft | 221 kts | 153° |
| 2026-04-24 20:47 | 46.16455 | 6.06439 | 6667 ft | 231 kts | 121° |
| 2026-04-24 20:48 | 46.15924 | 6.08638 | 7012 ft | 235 kts | 92° |
| 2026-04-24 20:48 | 46.16145 | 6.10948 | 7015 ft | 233 kts | 72° |
| 2026-04-24 20:48 | 46.16655 | 6.13152 | 7011 ft | 232 kts | 70° |
| 2026-04-24 20:48 | 46.17250 | 6.15324 | 7003 ft | 233 kts | 60° |
| 2026-04-24 20:49 | 46.18192 | 6.17211 | 7012 ft | 233 kts | 48° |
| 2026-04-24 20:49 | 46.19308 | 6.18913 | 7009 ft | 233 kts | 44° |
| 2026-04-24 20:49 | 46.20443 | 6.20529 | 7003 ft | 233 kts | 44° |
| 2026-04-24 20:49 | 46.21611 | 6.22189 | 7013 ft | 232 kts | 44° |
| 2026-04-24 20:50 | 46.22504 | 6.23453 | 7011 ft | 232 kts | 44° |
| 2026-04-24 20:50 | 46.23510 | 6.24873 | 7014 ft | 232 kts | 44° |
| 2026-04-24 20:50 | 46.24663 | 6.26501 | 7018 ft | 225 kts | 44° |
| 2026-04-24 20:50 | 46.25664 | 6.27912 | 6925 ft | 216 kts | 44° |
| 2026-04-24 20:51 | 46.26731 | 6.29403 | 6736 ft | 208 kts | 44° |
| 2026-04-24 20:51 | 46.27796 | 6.30745 | 6512 ft | 202 kts | 30° |
| 2026-04-24 20:51 | 46.29124 | 6.31370 | 6134 ft | 204 kts | 5° |
| 2026-04-24 20:51 | 46.30519 | 6.31187 | 5838 ft | 201 kts | 343° |
| 2026-04-24 20:52 | 46.31720 | 6.30258 | 5541 ft | 192 kts | 319° |
| 2026-04-24 20:52 | 46.32570 | 6.28813 | 5096 ft | 189 kts | 308° |
| 2026-04-24 20:52 | 46.33246 | 6.27229 | 4661 ft | 185 kts | 291° |
| 2026-04-24 20:52 | 46.33463 | 6.25444 | 4282 ft | 180 kts | 264° |
| 2026-04-24 20:53 | 46.33043 | 6.23794 | 3874 ft | 177 kts | 233° |
| 2026-04-24 20:53 | 46.32182 | 6.22534 | 3436 ft | 177 kts | 220° |
| 2026-04-24 20:53 | 46.31245 | 6.21414 | 3092 ft | 171 kts | 217° |
| 2026-04-24 20:53 | 46.30347 | 6.20384 | 2859 ft | 167 kts | 219° |
| 2026-04-24 20:54 | 46.29492 | 6.19244 | 2632 ft | 164 kts | 225° |
| 2026-04-24 20:54 | 46.28699 | 6.18090 | 2396 ft | 162 kts | 225° |
| 2026-04-24 20:54 | 46.27918 | 6.16928 | 2174 ft | 160 kts | 225° |
| 2026-04-24 20:54 | 46.27130 | 6.15776 | 1960 ft | 162 kts | 225° |
| 2026-04-24 20:55 | 46.26347 | 6.14626 | 1765 ft | 161 kts | 225° |
| 2026-04-24 20:55 | 46.25563 | 6.13477 | 1548 ft | 161 kts | 225° |
| 2026-04-24 20:55 | 46.24769 | 6.12309 | 1370 ft | 161 kts | 225° |
| 2026-04-24 20:55 | 46.24099 | 6.11322 | 1371 ft | 109 kts | 225° |
| 2026-04-24 20:56 | 46.23700 | 6.10740 | 1377 ft | 59 kts | 226° |
| 2026-04-24 20:56 | 46.23424 | 6.10336 | 1380 ft | 55 kts | 225° |
| 2026-04-24 20:56 | 46.23244 | 6.10140 | 1386 ft | 18 kts | 202° |
| 2026-04-24 20:56 | 46.23133 | 6.10093 | 1389 ft | 15 kts | 189° |
| 2026-04-24 20:57 | 46.23074 | 6.10114 | 1390 ft | 8 kts | 113° |
| 2026-04-24 20:57 | 46.23093 | 6.10199 | 1388 ft | 5 kts | 51° |
| 2026-04-24 20:57 | 46.23095 | 6.10203 | 1388 ft | 1 kts | 50° |
| 2026-04-24 20:57 | 46.23129 | 6.10252 | 1387 ft | 10 kts | 45° |
| 2026-04-24 20:58 | 46.23159 | 6.10353 | 1384 ft | 11 kts | 122° |
| 2026-04-24 20:58 | 46.23107 | 6.10426 | 1386 ft | 8 kts | 134° |
| 2026-04-24 20:58 | 46.23101 | 6.10434 | 1387 ft | 0 kts | 134° |
| 2026-04-24 20:58 | 46.23086 | 6.10456 | 1387 ft | 4 kts | 139° |
| 2026-04-24 20:59 | 46.23058 | 6.10480 | 1389 ft | 5 kts | 159° |
| 2026-04-24 20:59 | 46.23027 | 6.10494 | 1389 ft | 3 kts | 153° |
| 2026-04-24 20:59 | 46.23019 | 6.10501 | 1390 ft | 0 kts | 142° |
| 2026-04-24 20:59 | 46.23011 | 6.10512 | 1390 ft | 0 kts | 138° |
| 2026-04-24 21:00 | 46.23009 | 6.10515 | 1390 ft | 1 kts | 138° |
| 2026-04-24 21:00 | 46.23004 | 6.10521 | 1390 ft | 0 kts | 138° |
| 2026-04-24 21:00 | 46.23000 | 6.10526 | 1390 ft | 0 kts | 137° |